Terminal Aerodrome Forecast
Issued by NWS Wilmington, OH

Current Version | Previous Version | Text Only | Print | Product List | Glossary Off
Versions: 1 2 3 4 5 6 7 8 9 10 11 12 13 14 15 16

900
FTUS41 KILN 252325
TAFCMH
TAF
KCMH 252325Z 2600/2624 17005KT P6SM FEW050 SCT120 BKN250
     FM260900 18005KT P6SM VCSH BKN035 BKN080
     FM261400 21008KT P6SM BKN035 BKN100
     FM261700 22009KT P6SM SCT035=

USA.gov is the U.S. government's official web portal to all federal, state and local government web resources and services.